METAR Data
IDs: Format: Raw Decoded Include TAF

Data at: 0205 UTC 19 Oct 2021

PAWM 190156Z AUTO 13004KT 9SM CLR M04/M08 A2956 RMK AO2 SLP017 T10391078 FZRANO PNO $
PAWM 190056Z AUTO 12004KT 9SM CLR M03/M08 A2959 RMK AO2 SLP026 T10331078 FZRANO PNO $
PAWM 182356Z AUTO 05004KT 9SM CLR M04/M08 A2963 RMK AO2 SLP039 6//// T10391078 11039 21106 58030 FZRANO PNO $
PAWM 182256Z AUTO 02006KT 8SM SCT100 M05/M08 A2967 RMK AO2 SLP052 T10501078 FZRANO PNO $
PAWM 182156Z AUTO 00000KT 9SM CLR M06/M08 A2970 RMK AO2 SLP065 T10611083 FZRANO PNO $
PAWM 182056Z AUTO 35003KT 9SM CLR M07/M09 A2972 RMK AO2 SLP070 6//// T10721094 56019 FZRANO PNO $
PAWM 181956Z AUTO 01005KT 9SM CLR M09/M11 A2974 RMK AO2 SLP076 T10891106 FZRANO PNO $
PAWM 181856Z AUTO 01005KT 9SM CLR M09/M11 A2975 RMK AO2 SLP081 T10941111 FZRANO PNO $
PAWM 181756Z AUTO 36005KT 9SM CLR M11/M11 A2977 RMK AO2 SLP089 6//// T11061111 11089 21106 58012 FZRANO PNO $
PAWM 181656Z AUTO 01007KT 10SM CLR M10/M11 A2979 RMK AO2 SLP093 T11001111 FZRANO PNO $
PAWM 181556Z AUTO 35005KT 10SM CLR M09/M11 A2980 RMK AO2 SLP098 T10941106 FZRANO PNO $
PAWM 181456Z AUTO 36009KT 10SM CLR M10/M11 A2981 RMK AO2 SLP101 6//// T11001111 58006 FZRANO PNO $
PAWM 181356Z AUTO 01006KT 10SM CLR M09/M11 A2982 RMK AO2 SLP104 T10941106 FZRANO PNO $
PAWM 181256Z AUTO 36008KT 10SM CLR M09/M10 A2982 RMK AO2 SLP104 T10891100 FZRANO PNO $
PAWM 181156Z AUTO 36008KT 10SM CLR M09/M10 A2983 RMK AO2 SLP106 6//// 7//// T10891100 11056 21089 50003 FZRANO PNO $
PAWM 181056Z AUTO 36008KT 10SM CLR M08/M10 A2983 RMK AO2 SLP107 T10831100 FZRANO PNO $
PAWM 180956Z AUTO 35008KT 10SM CLR M08/M09 A2982 RMK AO2 SLP105 T10781094 FZRANO PNO $
PAWM 180856Z AUTO 34009KT 10SM CLR M08/M09 A2982 RMK AO2 SLP104 6//// T10781094 400001083 51013 FZRANO PNO $
PAWM 180756Z AUTO 34009KT 10SM CLR M08/M09 A2980 RMK AO2 SLP098 T10831094 FZRANO PNO $
PAWM 180656Z AUTO 34008KT 10SM CLR M07/M09 A2980 RMK AO2 SLP097 T10671089 FZRANO PNO $
PAWM 180556Z AUTO 36011G15KT 10SM CLR M06/M08 A2978 RMK AO2 SLP091 6//// T10561083 10000 21056 51014 FZRANO PNO $
PAWM 180456Z AUTO 35010KT 10SM CLR M05/M08 A2977 RMK AO2 SLP088 T10501078 FZRANO PNO $
PAWM 180356Z AUTO 35012KT 9SM CLR M04/M07 A2976 RMK AO2 SLP083 T10391072 FZRANO PNO $
PAWM 180256Z AUTO 01012G17KT 9SM OVC033 M02/M07 A2974 RMK AO2 SLP076 6//// T10171067 53015 FZRANO PNO $
PAWM 180156Z AUTO 36012G19KT 9SM OVC035 M01/M07 A2972 RMK AO2 SLP068 T10061072 FZRANO PNO $
PAWM 180056Z AUTO 01010G15KT 9SM FEW032 M01/M08 A2971 RMK AO2 SLP065 T10061078 FZRANO PNO $
PAWM 172356Z AUTO 36012G20KT 9SM BKN032 M01/M07 A2970 RMK AO2 SLP061 6//// T10061067 11006 21056 53018 FZRANO PNO $
PAWM 172338Z AUTO 36012G19KT 9SM OVC030 M01/M07 A2969 RMK AO2 FZRANO PNO $
PAWM 172256Z AUTO 36012G19KT 8SM OVC024 M02/M06 A2967 RMK AO2 SLP052 T10171061 FZRANO PNO $
PAWM 172156Z AUTO 02007KT 9SM OVC022 M02/M06 A2965 RMK AO2 SLP045 T10171056 FZRANO PNO $
PAWM 172131Z AUTO 36011G16KT 9SM BKN020 BKN025 M01/M06 A2964 RMK AO2 FZRANO PNO $
PAWM 172056Z AUTO 01008KT 9SM CLR M03/M06 A2964 RMK AO2 SLP042 6//// T10281061 51016 FZRANO PNO $
PAWM 171956Z AUTO 36010G18KT 9SM CLR M03/M07 A2963 RMK AO2 SLP039 T10331072 FZRANO PNO $
PAWM 171856Z AUTO 36008G15KT 9SM CLR M04/M07 A2961 RMK AO2 SLP032 T10441067 FZRANO PNO $
PAWM 171756Z AUTO 01010KT 9SM CLR M06/M07 A2959 RMK AO2 SLP027 6//// T10561072 11050 21061 52015 FZRANO PNO $
PAWM 171656Z AUTO 35009KT 10SM CLR M05/M08 A2958 RMK AO2 SLP022 T10501078 FZRANO PNO $
PAWM 171556Z AUTO 01010G17KT 10SM CLR M05/M08 A2956 RMK AO2 SLP017 T10501078 FZRANO PNO $
PAWM 171456Z AUTO 36009G17KT 10SM CLR M06/M08 A2955 RMK AO2 SLP011 6//// T10561078 50002 FZRANO PNO $